Friday, January 18, 2019, 3:34 AM EST
Back to Local

K12N, Aeroflex-andover Airport

Location: Newton, NJ, United States Lat: 41.017
Local Time: 3:34 AM EST ( 8:34 GMT) Lon: -74.733
Time Zone: US/Eastern Elev: 583 ft

Show me the last for .
Show Coded

Time T Td Feel RH Dir Speed Gust Alt SLP Vis Weather Sky Remarks
2019-01-18 02:54 25 22 - 87 - Calm - 30.14 30.17 0 1-hr Precip Total: 0.01"
2019-01-18 01:54 25 22 21 87 30° 3 - 30.16 30.19 0 1-hr Precip Total: 0.01"
2019-01-18 00:54 25 22 - 87 - Calm - 30.17 30.21 0 1-hr Precip Total: 0.02"
6-hr Precip Total (1am): 0.04"
6-hr Min Temp (1am): 25.0°F
6-hr Max Temp (1am): 28.0°F
2019-01-17 23:54 25 21 - 84 - Calm - 30.20 30.24 0 1-hr Precip Total: 0.01"
24-hr Min Temp (12am): 19.0°F
24-hr Max Temp (12am): 30.9°F
2019-01-17 22:54 25 20 - 80 - Calm - 30.22 30.26 0 1-hr Precip Total: 0.01"
2019-01-17 21:54 27 17 - 65 - Calm - 30.22 30.26 0 None
2019-01-17 20:54 27 13 23 54 Variable 3 - 30.23 30.27 0 None
2019-01-17 19:54 27 11 23 50 Variable 3 - 30.25 30.30 0 None
2019-01-17 18:54 28 8 24 42 160° 3 - 30.26 30.30 0 6-hr Min Temp (7pm): 28.0°F
6-hr Max Temp (7pm): 30.9°F
2019-01-17 17:54 28 5 23 36 160° 5 - 30.27 30.31 0 None
2019-01-17 16:54 29 1 25 29 Variable 3 - 30.25 30.29 0 None
2019-01-17 15:54 30 3 - 30 - Calm - 30.25 30.29 0 None
2019-01-17 14:54 31 1 - 27 - Calm - 30.27 30.31 0 None
2019-01-17 13:54 29 2 - 30 - Calm - 30.30 30.34 0 None
2019-01-17 12:54 28 3 - 33 - Calm - 30.31 30.35 0 6-hr Min Temp (1pm): 19.0°F
6-hr Max Temp (1pm): 28.9°F
2019-01-17 11:54 27 3 22 35 340° 5 - 30.35 30.39 0 None
2019-01-17 10:54 26 6 22 41 Variable 3 - 30.40 30.44 0 None
2019-01-17 09:54 23 9 18 54 Variable 3 - 30.39 30.43 0 None
2019-01-17 08:54 21 8 13 56 Variable 6 - 30.38 30.42 0 None
2019-01-17 07:54 19 7 14 58 Variable 3 - 30.36 30.40 0 None
2019-01-17 06:54 20 7 - 56 - Calm - 30.35 30.39 0 6-hr Min Temp (7am): 19.0°F
6-hr Max Temp (7am): 26.1°F
2019-01-17 05:54 20 7 11 56 350° 7 - 30.33 30.37 0 None
2019-01-17 04:54 20 7 12 56 350° 6 - 30.31 30.35 0 None
2019-01-17 03:54 21 7 15 53 Variable 5 - 30.31 30.34 0 None

Support USWX by starting your Amazon purchase here.